createdAt,value
2017-08-17T00:00:06.299Z,76.70
2017-08-17T00:02:33.795Z,76.70
2017-08-17T00:05:02.038Z,77.40
2017-08-17T00:07:29.588Z,76.60
2017-08-17T00:09:57.096Z,76.60
2017-08-17T00:12:25.357Z,76.90
2017-08-17T00:14:52.829Z,76.90
2017-08-17T00:17:21.071Z,77.00
2017-08-17T00:19:48.563Z,76.80
2017-08-17T00:22:16.060Z,76.90
2017-08-17T00:24:43.692Z,77.00
2017-08-17T00:27:11.220Z,76.80
2017-08-17T00:29:38.790Z,76.90
2017-08-17T00:32:07.068Z,76.80
2017-08-17T00:34:35.314Z,76.90
2017-08-17T00:37:02.839Z,76.90
2017-08-17T00:39:31.274Z,76.90
2017-08-17T00:41:59.525Z,77.10
2017-08-17T00:44:27.011Z,77.10
2017-08-17T00:46:55.260Z,77.00
2017-08-17T00:49:22.800Z,77.00
2017-08-17T00:51:50.345Z,77.10
2017-08-17T00:54:17.833Z,76.90
2017-08-17T00:56:45.311Z,76.90
2017-08-17T00:59:13.598Z,77.20
2017-08-17T01:01:41.871Z,77.20
2017-08-17T01:04:10.151Z,77.20
2017-08-17T01:06:38.394Z,77.20
2017-08-17T01:09:05.873Z,77.10
2017-08-17T01:11:34.148Z,76.80
2017-08-17T01:14:02.527Z,76.70
2017-08-17T01:16:30.759Z,76.80
2017-08-17T01:18:58.253Z,76.70
2017-08-17T01:21:25.811Z,76.90
2017-08-17T01:23:53.379Z,77.40
2017-08-17T01:26:21.699Z,77.30
2017-08-17T01:28:49.224Z,77.10
2017-08-17T01:31:16.812Z,77.20
2017-08-17T01:33:44.304Z,77.30
2017-08-17T01:36:11.777Z,77.20
2017-08-17T01:38:39.259Z,77.30
2017-08-17T01:41:06.748Z,77.20
2017-08-17T01:43:34.247Z,77.10
2017-08-17T01:46:01.718Z,77.40
2017-08-17T01:48:29.958Z,77.60
2017-08-17T01:50:57.444Z,77.40
2017-08-17T01:53:25.789Z,77.50
2017-08-17T01:55:53.274Z,77.40
2017-08-17T01:58:21.519Z,77.50
2017-08-17T02:00:49.027Z,77.50
2017-08-17T02:03:16.562Z,78.00
2017-08-17T02:05:44.811Z,78.20
2017-08-17T02:08:12.285Z,77.90
2017-08-17T02:10:39.770Z,78.40
2017-08-17T02:13:08.047Z,78.60
2017-08-17T02:15:35.590Z,78.60
2017-08-17T02:18:03.871Z,78.30
2017-08-17T02:20:32.131Z,78.20
2017-08-17T02:22:59.702Z,78.10
2017-08-17T02:25:27.929Z,78.10
2017-08-17T02:27:55.431Z,78.00
2017-08-17T02:30:23.689Z,77.90
2017-08-17T02:32:51.170Z,77.80
2017-08-17T02:35:19.441Z,77.60
2017-08-17T02:37:47.819Z,77.70
2017-08-17T02:40:16.202Z,77.80
2017-08-17T02:42:44.468Z,78.00
2017-08-17T02:45:12.747Z,78.60
2017-08-17T02:47:40.312Z,77.70
2017-08-17T02:50:08.578Z,77.70
2017-08-17T02:52:36.087Z,77.50
2017-08-17T02:55:03.597Z,77.50
2017-08-17T02:57:31.873Z,77.90
2017-08-17T03:00:00.149Z,78.30
2017-08-17T03:02:28.425Z,78.70
2017-08-17T03:04:56.704Z,78.90
2017-08-17T03:07:24.976Z,78.90
2017-08-17T03:09:53.255Z,78.60
2017-08-17T03:12:21.526Z,78.70
2017-08-17T03:14:49.770Z,77.80
2017-08-17T03:17:17.242Z,78.30
2017-08-17T03:19:44.718Z,78.50
2017-08-17T03:22:13.003Z,78.30
2017-08-17T03:24:41.252Z,78.50
2017-08-17T03:27:08.731Z,78.50
2017-08-17T03:29:36.196Z,78.80
2017-08-17T03:32:03.702Z,78.90
2017-08-17T03:34:31.202Z,78.70
2017-08-17T03:36:59.483Z,78.50
2017-08-17T03:39:27.037Z,78.40
2017-08-17T03:41:54.595Z,78.40
2017-08-17T03:44:22.883Z,78.50
2017-08-17T03:46:50.419Z,78.50
2017-08-17T03:49:18.685Z,79.40
2017-08-17T03:51:46.164Z,78.50
2017-08-17T03:54:13.762Z,78.30
2017-08-17T03:56:41.242Z,78.30
2017-08-17T03:59:08.736Z,78.30
2017-08-17T04:01:36.281Z,78.60
2017-08-17T04:04:03.825Z,78.50
2017-08-17T04:06:31.303Z,78.20
2017-08-17T04:08:59.558Z,78.20
2017-08-17T04:11:27.048Z,78.00
2017-08-17T04:13:54.542Z,77.90
2017-08-17T04:16:22.030Z,78.00
2017-08-17T04:18:49.524Z,78.10
2017-08-17T04:21:16.988Z,78.30
2017-08-17T04:23:44.502Z,78.20
2017-08-17T04:26:12.063Z,78.20
2017-08-17T04:28:39.561Z,78.20
2017-08-17T04:31:07.098Z,78.30
2017-08-17T04:33:35.354Z,78.20
2017-08-17T04:36:02.830Z,78.20
2017-08-17T04:38:31.086Z,78.50
2017-08-17T04:40:58.586Z,78.40
2017-08-17T04:43:26.097Z,78.60
2017-08-17T04:45:53.573Z,78.70
2017-08-17T04:48:21.038Z,78.60
2017-08-17T04:50:49.312Z,78.80
2017-08-17T04:53:17.583Z,78.80
2017-08-17T04:55:45.871Z,78.70
2017-08-17T04:58:31.196Z,78.70
2017-08-17T05:00:58.787Z,78.60
2017-08-17T05:03:27.035Z,79.70
2017-08-17T05:05:54.536Z,79.60
2017-08-17T05:08:22.789Z,79.60
2017-08-17T05:10:50.276Z,79.60
2017-08-17T05:13:17.834Z,79.70
2017-08-17T05:15:45.362Z,79.80
2017-08-17T05:18:12.829Z,79.90
2017-08-17T05:20:41.105Z,79.60
2017-08-17T05:23:09.392Z,79.60
2017-08-17T05:25:37.651Z,79.50
2017-08-17T05:28:05.897Z,79.60
2017-08-17T05:30:33.384Z,79.40
2017-08-17T05:33:01.675Z,79.20
2017-08-17T05:35:29.178Z,79.20
2017-08-17T05:37:56.779Z,79.30
2017-08-17T05:40:25.043Z,78.90
2017-08-17T05:42:52.524Z,78.90
2017-08-17T05:45:20.805Z,78.90
2017-08-17T05:47:48.285Z,78.80
2017-08-17T05:50:15.807Z,79.00
2017-08-17T05:52:44.082Z,79.00
2017-08-17T05:55:12.322Z,78.80
2017-08-17T05:57:39.802Z,78.70
2017-08-17T06:00:07.286Z,78.60
2017-08-17T06:02:34.769Z,78.60
2017-08-17T06:05:02.271Z,78.60
2017-08-17T06:07:29.886Z,78.50
2017-08-17T06:09:57.417Z,79.30
2017-08-17T06:12:24.950Z,78.30
2017-08-17T06:14:52.437Z,78.20
2017-08-17T06:17:19.979Z,78.00
2017-08-17T06:19:48.237Z,77.80
2017-08-17T06:22:15.724Z,77.70
2017-08-17T06:24:43.260Z,77.40
2017-08-17T06:27:11.509Z,78.20
2017-08-17T06:29:39.090Z,77.40
2017-08-17T06:32:06.565Z,77.50
2017-08-17T06:34:34.815Z,76.40
2017-08-17T06:37:02.394Z,76.30
2017-08-17T06:39:30.663Z,76.30
2017-08-17T06:41:58.939Z,76.50
2017-08-17T06:44:27.215Z,76.50
2017-08-17T06:46:55.503Z,76.50
2017-08-17T06:49:23.754Z,76.10
2017-08-17T06:51:51.318Z,76.00
2017-08-17T06:54:19.614Z,76.10
2017-08-17T06:56:47.843Z,75.70
2017-08-17T06:59:15.425Z,75.60
2017-08-17T07:01:43.742Z,76.20
2017-08-17T07:04:11.251Z,75.20
2017-08-17T07:06:38.851Z,75.00
2017-08-17T07:09:06.313Z,74.50
2017-08-17T07:11:33.868Z,74.20
2017-08-17T07:14:01.408Z,74.40
2017-08-17T07:16:28.951Z,74.20
2017-08-17T07:18:56.448Z,74.40
2017-08-17T07:21:23.913Z,74.70
2017-08-17T07:23:51.426Z,73.70
2017-08-17T07:26:19.708Z,74.50
2017-08-17T07:28:47.990Z,72.90
2017-08-17T07:31:16.237Z,72.80
2017-08-17T07:33:43.708Z,72.80
2017-08-17T07:36:11.988Z,73.00
2017-08-17T07:38:40.234Z,72.30
2017-08-17T07:41:07.805Z,72.10
2017-08-17T07:43:35.386Z,72.80
2017-08-17T07:46:03.654Z,71.60
2017-08-17T07:48:31.925Z,71.60
2017-08-17T07:51:00.206Z,70.00
2017-08-17T07:53:28.487Z,71.90
2017-08-17T07:55:56.754Z,71.80
2017-08-17T07:58:24.988Z,70.40
2017-08-17T08:00:52.489Z,70.50
2017-08-17T08:03:20.781Z,70.00
2017-08-17T08:05:49.042Z,69.70
2017-08-17T08:08:17.359Z,70.10
2017-08-17T08:10:44.878Z,70.00
2017-08-17T08:13:13.169Z,70.50
2017-08-17T08:15:40.639Z,71.30
2017-08-17T08:18:08.153Z,69.50
2017-08-17T08:20:35.720Z,68.50
2017-08-17T08:23:03.208Z,69.10
2017-08-17T08:25:30.689Z,67.90
2017-08-17T08:27:58.164Z,68.30
2017-08-17T08:30:25.641Z,68.30
2017-08-17T08:32:53.201Z,68.80
2017-08-17T08:35:20.670Z,68.90
2017-08-17T08:37:48.914Z,66.90
2017-08-17T08:40:16.402Z,66.80
2017-08-17T08:42:44.675Z,67.10
2017-08-17T08:45:12.906Z,66.10
2017-08-17T08:47:40.456Z,66.00
2017-08-17T08:50:07.918Z,65.60
2017-08-17T08:52:35.425Z,65.20
2017-08-17T08:55:03.795Z,65.20
2017-08-17T08:57:32.119Z,65.70
2017-08-17T08:59:59.606Z,65.60
2017-08-17T09:02:27.094Z,65.10
2017-08-17T09:04:55.318Z,63.20
2017-08-17T09:07:22.817Z,63.10
2017-08-17T09:09:50.288Z,62.40
2017-08-17T09:12:18.636Z,62.30
2017-08-17T09:14:46.115Z,62.20
2017-08-17T09:17:14.397Z,60.30
2017-08-17T09:19:42.638Z,58.10
2017-08-17T09:22:10.117Z,58.10
2017-08-17T09:24:37.665Z,58.40
2017-08-17T09:27:05.167Z,58.70
2017-08-17T09:29:32.697Z,58.60
2017-08-17T09:32:00.181Z,57.40
2017-08-17T09:34:27.694Z,57.70
2017-08-17T09:36:55.270Z,56.10
2017-08-17T09:39:23.506Z,57.00
2017-08-17T09:41:50.977Z,56.40
2017-08-17T09:44:18.463Z,56.40
2017-08-17T09:46:47.613Z,56.50
2017-08-17T09:49:15.092Z,56.50
2017-08-17T09:51:42.574Z,55.00
2017-08-17T09:54:10.819Z,55.10
2017-08-17T09:56:38.285Z,55.10
2017-08-17T09:59:05.899Z,54.10
2017-08-17T10:01:33.407Z,54.00
2017-08-17T10:04:00.995Z,53.70
2017-08-17T10:06:28.474Z,52.70
2017-08-17T10:08:55.992Z,52.70
2017-08-17T10:11:24.251Z,51.80
2017-08-17T10:13:51.738Z,51.60
2017-08-17T10:16:19.227Z,51.60
2017-08-17T10:18:46.831Z,52.30
2017-08-17T10:21:15.098Z,52.00
2017-08-17T10:23:42.560Z,51.60
2017-08-17T10:26:10.134Z,51.60
2017-08-17T10:28:38.421Z,51.60
2017-08-17T10:31:06.657Z,52.70
2017-08-17T10:33:34.233Z,52.60
2017-08-17T10:36:01.701Z,52.00
2017-08-17T10:38:29.403Z,52.10
2017-08-17T10:40:56.950Z,51.40
2017-08-17T10:43:24.462Z,52.20
2017-08-17T10:45:52.734Z,52.50
2017-08-17T10:48:20.305Z,52.20
2017-08-17T10:50:47.860Z,50.60
2017-08-17T10:53:15.330Z,51.40
2017-08-17T10:55:43.590Z,50.30
2017-08-17T10:58:11.190Z,50.20
2017-08-17T11:00:38.712Z,52.00
2017-08-17T11:03:06.266Z,52.20
2017-08-17T11:05:33.823Z,51.20
2017-08-17T11:08:02.134Z,50.30
2017-08-17T11:10:29.633Z,50.40
2017-08-17T11:12:57.110Z,51.50
2017-08-17T11:15:24.717Z,51.00
2017-08-17T11:17:52.236Z,51.30
2017-08-17T11:20:19.697Z,51.90
2017-08-17T11:22:47.958Z,51.10
2017-08-17T11:25:15.435Z,51.10
2017-08-17T11:27:43.710Z,50.90
2017-08-17T11:30:11.934Z,50.90
2017-08-17T11:32:39.384Z,50.80
2017-08-17T11:35:06.850Z,49.90
2017-08-17T11:37:34.313Z,49.70
2017-08-17T11:40:01.794Z,49.60
2017-08-17T11:42:29.321Z,48.20
2017-08-17T11:44:56.880Z,47.80
2017-08-17T11:47:24.426Z,49.20
2017-08-17T11:49:51.943Z,49.00
2017-08-17T11:52:20.201Z,46.80
2017-08-17T11:54:47.780Z,46.80
2017-08-17T11:57:16.019Z,46.80
2017-08-17T11:59:43.507Z,46.80
2017-08-17T12:02:11.882Z,47.20
2017-08-17T12:04:40.127Z,48.30
2017-08-17T12:07:07.625Z,48.20
2017-08-17T12:09:35.879Z,48.60
2017-08-17T12:12:03.371Z,48.50
2017-08-17T12:14:30.903Z,48.50
2017-08-17T12:16:59.201Z,46.20
2017-08-17T12:19:26.759Z,46.40
2017-08-17T12:21:54.315Z,46.80
2017-08-17T12:24:22.586Z,46.70
2017-08-17T12:26:50.823Z,48.50
2017-08-17T12:29:18.317Z,48.50
2017-08-17T12:31:46.632Z,48.10
2017-08-17T12:34:14.096Z,48.00
2017-08-17T12:36:41.570Z,48.40
2017-08-17T12:39:09.081Z,49.10
2017-08-17T12:41:36.576Z,48.60
2017-08-17T12:44:04.049Z,49.20
2017-08-17T12:46:31.628Z,49.00
2017-08-17T12:48:59.861Z,47.90
2017-08-17T12:51:27.326Z,47.80
2017-08-17T12:53:54.795Z,47.40
2017-08-17T12:56:22.266Z,47.60
2017-08-17T12:58:49.947Z,48.20
2017-08-17T13:01:18.200Z,48.10
2017-08-17T13:03:45.687Z,48.00
2017-08-17T13:06:13.231Z,48.70
2017-08-17T13:08:40.706Z,48.50
2017-08-17T13:11:08.187Z,49.10
2017-08-17T13:13:35.698Z,49.00
2017-08-17T13:16:03.991Z,49.00
2017-08-17T13:18:31.455Z,48.30
2017-08-17T13:20:58.952Z,48.50
2017-08-17T13:23:26.468Z,49.30
2017-08-17T13:25:53.954Z,50.40
2017-08-17T13:28:21.428Z,49.40
2017-08-17T13:30:48.934Z,48.80
2017-08-17T13:33:16.465Z,48.40
2017-08-17T13:35:44.023Z,49.10
2017-08-17T13:38:11.589Z,49.70
2017-08-17T13:40:39.147Z,50.50
2017-08-17T13:43:07.425Z,50.20
2017-08-17T13:45:35.654Z,49.30
2017-08-17T13:48:03.158Z,49.20
2017-08-17T13:50:31.390Z,49.10
2017-08-17T13:52:58.869Z,49.10
2017-08-17T13:55:26.456Z,49.30
2017-08-17T13:57:54.723Z,50.20
2017-08-17T14:00:23.004Z,49.90
2017-08-17T14:02:51.275Z,50.00
2017-08-17T14:05:19.502Z,50.10
2017-08-17T14:07:47.066Z,50.10
2017-08-17T14:10:14.538Z,50.40
2017-08-17T14:12:42.128Z,50.70
2017-08-17T14:15:10.535Z,49.80
2017-08-17T14:17:38.102Z,49.80
2017-08-17T14:20:05.611Z,50.10
2017-08-17T14:22:33.080Z,50.10
2017-08-17T14:25:01.355Z,49.90
2017-08-17T14:27:29.620Z,49.70
2017-08-17T14:29:57.090Z,49.60
2017-08-17T14:32:25.371Z,49.10
2017-08-17T14:34:53.616Z,49.50
2017-08-17T14:37:21.090Z,49.40
2017-08-17T14:39:49.360Z,49.70
2017-08-17T14:42:16.843Z,49.70
2017-08-17T14:44:44.323Z,49.40
2017-08-17T14:47:12.042Z,48.40
2017-08-17T14:49:40.272Z,48.60
2017-08-17T14:52:07.814Z,48.60
2017-08-17T14:54:35.295Z,48.60
2017-08-17T14:57:02.890Z,48.80
2017-08-17T14:59:31.143Z,48.80
2017-08-17T15:01:58.731Z,48.20
2017-08-17T15:04:27.007Z,48.70
2017-08-17T15:06:55.289Z,49.10
2017-08-17T15:09:23.565Z,49.10
2017-08-17T15:11:51.835Z,48.70
2017-08-17T15:14:19.390Z,48.70
2017-08-17T15:16:47.663Z,49.00
2017-08-17T15:19:15.931Z,50.00
2017-08-17T15:21:43.559Z,49.90
2017-08-17T15:24:11.062Z,49.80
2017-08-17T15:26:39.327Z,50.10
2017-08-17T15:29:06.799Z,50.10
2017-08-17T15:31:34.288Z,50.10
2017-08-17T15:34:01.748Z,49.80
2017-08-17T15:36:29.255Z,50.30
2017-08-17T15:38:56.726Z,50.10
2017-08-17T15:41:24.969Z,50.80
2017-08-17T15:43:52.558Z,50.70
2017-08-17T15:46:20.815Z,51.20
2017-08-17T15:48:48.320Z,51.10
2017-08-17T15:51:15.799Z,50.90
2017-08-17T15:53:43.336Z,51.10
2017-08-17T15:56:10.948Z,51.70
2017-08-17T15:58:38.523Z,51.40
2017-08-17T16:01:06.762Z,51.70
2017-08-17T16:03:34.257Z,51.60
2017-08-17T16:06:02.510Z,51.60
2017-08-17T16:08:29.984Z,51.60
2017-08-17T16:10:58.278Z,52.00
2017-08-17T16:13:25.797Z,52.00
2017-08-17T16:15:53.350Z,52.10
2017-08-17T16:18:20.976Z,52.10
2017-08-17T16:20:48.487Z,52.10
2017-08-17T16:23:15.987Z,52.50
2017-08-17T16:25:43.515Z,52.40
2017-08-17T16:28:11.766Z,53.20
2017-08-17T16:30:39.246Z,52.50
2017-08-17T16:33:07.493Z,52.80
2017-08-17T16:35:35.065Z,52.70
2017-08-17T16:38:02.675Z,52.70
2017-08-17T16:40:30.163Z,53.00
2017-08-17T16:42:57.651Z,53.00
2017-08-17T16:45:25.887Z,53.20
2017-08-17T16:47:53.367Z,53.80
2017-08-17T16:50:20.825Z,53.50
2017-08-17T16:52:48.311Z,53.20
2017-08-17T16:55:15.890Z,53.30
2017-08-17T16:57:43.376Z,53.20
2017-08-17T17:00:10.870Z,53.40
2017-08-17T17:02:39.232Z,53.80
2017-08-17T17:05:06.821Z,53.80
2017-08-17T17:07:34.403Z,53.60
2017-08-17T17:10:01.883Z,53.90
2017-08-17T17:12:29.387Z,54.00
2017-08-17T17:14:57.637Z,53.90
2017-08-17T17:17:25.173Z,53.90
2017-08-17T17:19:52.681Z,53.80
2017-08-17T17:22:20.145Z,53.70
2017-08-17T17:24:47.757Z,54.10
2017-08-17T17:27:15.229Z,54.10
2017-08-17T17:29:42.811Z,54.30
2017-08-17T17:32:10.280Z,54.50
2017-08-17T17:34:37.797Z,54.40
2017-08-17T17:37:05.278Z,54.60
2017-08-17T17:39:33.639Z,54.90
2017-08-17T17:42:01.124Z,54.80
2017-08-17T17:44:28.617Z,54.80
2017-08-17T17:46:56.131Z,55.20
2017-08-17T17:49:23.637Z,55.00
2017-08-17T17:51:51.167Z,55.30
2017-08-17T17:54:18.666Z,55.50
2017-08-17T17:56:46.182Z,55.60
2017-08-17T17:59:13.661Z,55.60
2017-08-17T18:01:41.198Z,55.70
2017-08-17T18:04:08.687Z,56.00
2017-08-17T18:06:36.203Z,55.80
2017-08-17T18:09:03.709Z,55.90
2017-08-17T18:11:31.322Z,56.00
2017-08-17T18:13:58.898Z,56.10
2017-08-17T18:16:26.424Z,56.40
2017-08-17T18:18:54.697Z,56.40
2017-08-17T18:21:22.259Z,56.40
2017-08-17T18:23:50.535Z,56.80
2017-08-17T18:26:18.090Z,56.70
2017-08-17T18:28:46.334Z,56.90
2017-08-17T18:31:13.810Z,56.80
2017-08-17T18:33:42.194Z,57.70
2017-08-17T18:36:10.435Z,58.70
2017-08-17T18:38:39.642Z,58.70
2017-08-17T18:41:08.845Z,59.00
2017-08-17T18:43:36.438Z,59.50
2017-08-17T18:46:03.991Z,60.80
2017-08-17T18:48:32.330Z,63.40
2017-08-17T18:50:59.932Z,63.40
2017-08-17T18:53:27.467Z,64.10
2017-08-17T18:55:54.988Z,65.10
2017-08-17T18:58:22.539Z,66.00
2017-08-17T19:00:50.046Z,67.20
2017-08-17T19:03:18.306Z,67.50
2017-08-17T19:05:45.866Z,67.10
2017-08-17T19:08:13.459Z,67.90
2017-08-17T19:10:40.990Z,68.50
2017-08-17T19:13:08.551Z,68.80
2017-08-17T19:15:36.031Z,69.50
2017-08-17T19:18:04.273Z,70.60
2017-08-17T19:20:32.145Z,70.50
2017-08-17T19:23:00.431Z,71.60
2017-08-17T19:25:28.691Z,71.50
2017-08-17T19:27:56.245Z,71.50
2017-08-17T19:30:23.747Z,71.80
2017-08-17T19:32:51.231Z,71.80
2017-08-17T19:35:18.732Z,72.50
2017-08-17T19:37:46.965Z,72.80
2017-08-17T19:40:14.437Z,72.70
2017-08-17T19:42:41.903Z,72.60
2017-08-17T19:45:09.471Z,73.30
2017-08-17T19:47:36.932Z,73.80
2017-08-17T19:50:05.200Z,75.00
2017-08-17T19:52:32.775Z,74.20
2017-08-17T19:55:01.034Z,74.30
2017-08-17T19:57:28.590Z,74.30
2017-08-17T19:59:56.968Z,74.10
2017-08-17T20:02:24.529Z,74.40
2017-08-17T20:04:52.099Z,74.60
2017-08-17T20:07:20.373Z,75.20
2017-08-17T20:09:47.880Z,75.20
2017-08-17T20:12:15.362Z,75.70
2017-08-17T20:14:42.852Z,75.50
2017-08-17T20:17:11.172Z,75.60
2017-08-17T20:19:38.792Z,75.40
2017-08-17T20:22:07.139Z,75.90
2017-08-17T20:24:34.827Z,75.70
2017-08-17T20:27:02.388Z,76.20
2017-08-17T20:29:30.618Z,76.50
2017-08-17T20:31:58.107Z,76.30
2017-08-17T20:34:25.662Z,77.30
2017-08-17T20:36:53.157Z,77.30
2017-08-17T20:39:20.697Z,77.00
2017-08-17T20:41:48.967Z,77.70
2017-08-17T20:44:17.337Z,78.20
2017-08-17T20:46:44.825Z,77.20
2017-08-17T20:49:12.309Z,77.10
2017-08-17T20:51:39.808Z,77.50
2017-08-17T20:54:07.287Z,78.30
2017-08-17T20:56:35.548Z,77.90
2017-08-17T20:59:03.925Z,78.50
2017-08-17T21:01:31.447Z,77.70
2017-08-17T21:03:58.959Z,77.90
2017-08-17T21:06:26.448Z,77.80
2017-08-17T21:08:53.943Z,78.00
2017-08-17T21:11:21.414Z,77.80
2017-08-17T21:13:49.673Z,77.50
2017-08-17T21:16:17.249Z,77.30
2017-08-17T21:18:45.563Z,77.10
2017-08-17T21:21:13.079Z,77.00
2017-08-17T21:23:41.371Z,77.10
2017-08-17T21:26:09.659Z,77.00
2017-08-17T21:28:37.190Z,76.90
2017-08-17T21:31:05.455Z,76.30
2017-08-17T21:33:33.027Z,76.80
2017-08-17T21:36:01.267Z,75.70
2017-08-17T21:38:28.757Z,75.70
2017-08-17T21:40:57.007Z,75.80
2017-08-17T21:43:24.587Z,75.70
2017-08-17T21:45:52.878Z,76.20
2017-08-17T21:48:21.135Z,74.70
2017-08-17T21:50:48.611Z,74.70
2017-08-17T21:53:16.901Z,74.90
2017-08-17T21:55:44.469Z,74.70
2017-08-17T21:58:11.974Z,74.70
2017-08-17T22:00:39.554Z,74.90
2017-08-17T22:03:07.828Z,74.00
2017-08-17T22:05:36.073Z,74.30
2017-08-17T22:08:03.561Z,74.20
2017-08-17T22:10:31.835Z,74.50
2017-08-17T22:13:00.091Z,74.90
2017-08-17T22:15:27.653Z,73.90
2017-08-17T22:17:55.235Z,74.20
2017-08-17T22:20:23.491Z,74.00
2017-08-17T22:22:51.065Z,74.00
2017-08-17T22:25:19.424Z,74.60
2017-08-17T22:27:46.983Z,74.60
2017-08-17T22:30:14.543Z,74.40
2017-08-17T22:32:42.012Z,74.30
2017-08-17T22:35:10.255Z,75.20
2017-08-17T22:37:37.723Z,74.50
2017-08-17T22:40:05.201Z,74.70
2017-08-17T22:42:33.463Z,74.70
2017-08-17T22:45:01.028Z,74.60
2017-08-17T22:47:29.306Z,75.00
2017-08-17T22:49:57.575Z,75.00
2017-08-17T22:52:25.047Z,75.00
2017-08-17T22:54:53.290Z,74.90
2017-08-17T22:57:20.762Z,74.90
2017-08-17T22:59:48.226Z,75.00
2017-08-17T23:02:16.477Z,75.90
2017-08-17T23:04:43.953Z,75.00
2017-08-17T23:07:11.517Z,75.30
2017-08-17T23:09:39.795Z,76.20
2017-08-17T23:12:08.075Z,75.50
2017-08-17T23:14:36.347Z,75.60
2017-08-17T23:17:04.617Z,75.60
2017-08-17T23:19:32.083Z,75.40
2017-08-17T23:22:00.354Z,75.50
2017-08-17T23:24:28.597Z,75.60
2017-08-17T23:26:56.131Z,75.60
2017-08-17T23:29:23.650Z,75.70
2017-08-17T23:31:51.902Z,75.70
2017-08-17T23:34:19.382Z,75.70
2017-08-17T23:36:47.640Z,76.00
2017-08-17T23:39:15.197Z,75.90
2017-08-17T23:41:42.759Z,75.90
2017-08-17T23:44:10.232Z,75.80
2017-08-17T23:46:38.494Z,75.80
2017-08-17T23:49:06.049Z,75.80
2017-08-17T23:51:33.531Z,75.80
2017-08-17T23:54:01.789Z,75.90
2017-08-17T23:56:30.062Z,76.10
2017-08-17T23:58:57.622Z,76.00
